createdAt,value
2022-09-25T10:54:18.297Z,72.93
2022-09-25T10:56:47.870Z,73.00
2022-09-25T10:59:20.231Z,73.41
2022-09-25T11:01:51.255Z,72.43
2022-09-25T11:04:24.769Z,73.25
2022-09-25T11:06:58.270Z,74.36
2022-09-25T11:09:30.054Z,73.67
2022-09-25T11:12:08.751Z,72.38
2022-09-25T11:14:37.867Z,72.83
2022-09-25T11:17:10.209Z,71.83
2022-09-25T11:19:40.016Z,72.34
2022-09-25T11:22:17.721Z,71.38
2022-09-25T11:25:00.870Z,71.95
2022-09-25T11:27:36.109Z,71.02
2022-09-25T11:30:08.010Z,71.74
2022-09-25T11:32:51.638Z,70.68
2022-09-25T11:35:34.720Z,71.00
2022-09-25T11:38:12.239Z,71.38
2022-09-25T11:41:08.224Z,71.23
2022-09-25T11:43:57.120Z,69.41
2022-09-25T11:46:34.012Z,70.01
2022-09-25T11:49:12.425Z,70.20
2022-09-25T11:52:18.897Z,69.68
2022-09-25T11:55:20.011Z,70.17
2022-09-25T11:58:01.055Z,70.44
2022-09-25T12:00:41.108Z,70.70
2022-09-25T12:03:35.383Z,70.34
2022-09-25T12:06:22.398Z,70.13
2022-09-25T12:09:07.119Z,70.36
2022-09-25T12:11:47.617Z,69.91
2022-09-25T12:14:28.121Z,69.65
2022-09-25T12:17:04.696Z,70.12
2022-09-25T12:19:42.552Z,69.30
2022-09-25T12:22:21.778Z,69.93
2022-09-25T12:25:01.472Z,69.79
2022-09-25T12:27:46.861Z,69.01
2022-09-25T12:30:21.402Z,69.65
2022-09-25T12:33:04.555Z,69.33
2022-09-25T12:35:44.288Z,69.32
2022-09-25T12:38:21.068Z,69.46
2022-09-25T12:40:55.655Z,70.16
2022-09-25T12:43:30.100Z,69.89
2022-09-25T12:46:08.762Z,69.52
2022-09-25T12:48:45.283Z,69.52
2022-09-25T12:51:19.035Z,69.63
2022-09-25T12:53:56.821Z,69.87
2022-09-25T12:56:30.278Z,70.24
2022-09-25T12:59:06.262Z,70.25
2022-09-25T13:01:46.714Z,70.42
2022-09-25T13:04:56.258Z,70.06
2022-09-25T13:07:30.263Z,70.18
2022-09-25T13:09:58.633Z,69.41
2022-09-25T13:12:34.785Z,69.58
2022-09-25T13:15:09.768Z,69.33
2022-09-25T13:17:40.539Z,69.28
2022-09-25T13:20:44.082Z,69.33
2022-09-25T13:23:16.500Z,69.78
2022-09-25T13:25:47.629Z,69.68
2022-09-25T13:28:23.052Z,69.37
2022-09-25T13:31:10.144Z,68.98
2022-09-25T13:33:47.999Z,69.21
2022-09-25T13:36:36.567Z,68.81
2022-09-25T13:39:25.416Z,68.76
2022-09-25T13:41:57.156Z,68.71
2022-09-25T13:45:06.414Z,68.05
2022-09-25T13:47:55.086Z,68.84
2022-09-25T13:50:34.194Z,69.00
2022-09-25T13:53:21.540Z,68.89
2022-09-25T13:56:18.727Z,69.03
2022-09-25T13:59:23.592Z,69.13
2022-09-25T14:01:55.485Z,69.39
2022-09-25T14:04:37.528Z,68.72
2022-09-25T14:07:21.328Z,68.58
2022-09-25T14:09:54.806Z,67.92
2022-09-25T14:12:42.346Z,67.21
2022-09-25T14:15:29.482Z,67.38
2022-09-25T14:18:01.004Z,67.80
2022-09-25T14:20:36.330Z,67.65
2022-09-25T14:23:15.077Z,67.55
2022-09-25T14:25:47.053Z,68.40
2022-09-25T14:28:20.707Z,68.08
2022-09-25T14:31:15.253Z,68.26
2022-09-25T14:33:58.738Z,67.97
2022-09-25T14:36:37.288Z,68.41
2022-09-25T14:39:25.797Z,68.67
2022-09-25T14:42:16.114Z,68.68
2022-09-25T14:45:15.113Z,68.44
2022-09-25T14:47:47.485Z,69.23
2022-09-25T14:50:21.396Z,69.00
2022-09-25T14:52:50.719Z,69.36
2022-09-25T14:55:23.054Z,69.38
2022-09-25T14:57:53.366Z,69.30
2022-09-25T15:00:24.743Z,69.56
2022-09-25T15:02:55.655Z,69.46
2022-09-25T15:05:33.073Z,69.66
2022-09-25T15:08:03.516Z,70.39
2022-09-25T15:10:36.120Z,70.24
2022-09-25T15:13:12.979Z,69.98
2022-09-25T15:16:01.958Z,70.16
2022-09-25T15:18:30.461Z,70.01
2022-09-25T15:20:59.223Z,70.14
2022-09-25T15:23:30.625Z,70.55
2022-09-25T15:26:04.093Z,70.06
2022-09-25T15:28:40.278Z,70.65
2022-09-25T15:31:09.168Z,70.60
2022-09-25T15:33:39.589Z,70.58
2022-09-25T15:36:17.797Z,70.26
2022-09-25T15:38:52.976Z,70.74
2022-09-25T15:41:23.887Z,70.42
2022-09-25T15:43:53.576Z,70.21
2022-09-25T15:46:40.032Z,70.06
2022-09-25T15:49:08.582Z,70.58
2022-09-25T15:51:38.340Z,70.96
2022-09-25T15:54:31.445Z,69.96
2022-09-25T15:57:03.134Z,70.42
2022-09-25T15:59:35.319Z,70.29
2022-09-25T16:02:39.228Z,70.04
2022-09-25T16:05:11.302Z,70.32
2022-09-25T16:07:40.122Z,70.91
2022-09-25T16:10:31.873Z,70.35
2022-09-25T16:13:02.054Z,70.75
2022-09-25T16:15:50.735Z,70.53
2022-09-25T16:18:40.660Z,70.85
2022-09-25T16:21:15.533Z,71.10
2022-09-25T16:23:44.584Z,71.05
2022-09-25T16:26:19.831Z,71.02
2022-09-25T16:29:01.719Z,70.54
2022-09-25T16:31:30.852Z,71.26
2022-09-25T16:34:01.172Z,71.14
2022-09-25T16:36:39.922Z,70.80
2022-09-25T16:39:25.022Z,70.79
2022-09-25T16:41:53.914Z,70.46
2022-09-25T16:44:37.608Z,70.25
2022-09-25T16:47:18.033Z,69.88
2022-09-25T16:49:46.727Z,70.42
2022-09-25T16:52:21.823Z,70.75
2022-09-25T16:54:57.075Z,70.70
2022-09-25T16:57:27.914Z,70.97
2022-09-25T16:59:57.886Z,71.05
2022-09-25T17:02:33.526Z,70.92
2022-09-25T17:05:04.100Z,71.51
2022-09-25T17:07:32.757Z,71.32
2022-09-25T17:10:01.704Z,71.56
2022-09-25T17:12:34.255Z,71.41
2022-09-25T17:15:04.082Z,71.86
2022-09-25T17:17:32.617Z,71.51
2022-09-25T17:20:00.963Z,71.80
2022-09-25T17:22:31.212Z,71.63
2022-09-25T17:25:03.145Z,71.42
2022-09-25T17:27:31.988Z,71.66
2022-09-25T17:30:01.400Z,71.92
2022-09-25T17:32:33.976Z,71.29
2022-09-25T17:35:02.418Z,71.63
2022-09-25T17:37:31.588Z,71.91
2022-09-25T17:40:00.097Z,71.69
2022-09-25T17:42:28.495Z,70.94
2022-09-25T17:44:57.650Z,70.86
2022-09-25T17:47:27.517Z,71.04
2022-09-25T17:49:57.652Z,70.87
2022-09-25T17:52:26.515Z,70.72
2022-09-25T17:54:54.913Z,71.04
2022-09-25T17:57:23.279Z,70.51
2022-09-25T17:59:52.207Z,70.53
2022-09-25T18:02:20.631Z,70.80
2022-09-25T18:04:49.099Z,70.81
2022-09-25T18:07:18.962Z,70.67
2022-09-25T18:09:47.277Z,70.28
2022-09-25T18:12:15.581Z,70.67
2022-09-25T18:14:45.803Z,70.44
2022-09-25T18:17:16.013Z,70.68
2022-09-25T18:20:02.115Z,70.08
2022-09-25T18:22:32.964Z,70.03
2022-09-25T18:25:01.340Z,70.61
2022-09-25T18:27:33.215Z,70.23
2022-09-25T18:30:01.765Z,70.19
2022-09-25T18:32:33.075Z,70.51
2022-09-25T18:35:03.054Z,70.19
2022-09-25T18:37:33.340Z,70.59
2022-09-25T18:40:01.970Z,70.88
2022-09-25T18:42:32.405Z,70.55
2022-09-25T18:45:00.921Z,70.76
2022-09-25T18:47:29.728Z,70.88
2022-09-25T18:49:58.307Z,71.24
2022-09-25T18:52:26.979Z,71.18
2022-09-25T18:54:56.875Z,70.71
2022-09-25T18:57:25.243Z,71.37
2022-09-25T18:59:54.016Z,71.25
2022-09-25T19:02:25.495Z,70.68
2022-09-25T19:04:56.104Z,71.47
2022-09-25T19:07:25.893Z,71.24
2022-09-25T19:09:55.157Z,71.07
2022-09-25T19:12:25.346Z,71.10
2022-09-25T19:14:53.965Z,70.97
2022-09-25T19:17:41.461Z,71.23
2022-09-25T19:20:11.518Z,71.24
2022-09-25T19:22:41.484Z,71.36
2022-09-25T19:25:10.782Z,70.85
2022-09-25T19:27:40.507Z,71.16
2022-09-25T19:30:09.986Z,71.20
2022-09-25T19:32:38.923Z,71.10
2022-09-25T19:35:08.179Z,71.09
2022-09-25T19:37:36.737Z,71.41
2022-09-25T19:40:23.303Z,71.58
2022-09-25T19:42:53.590Z,71.29
2022-09-25T19:45:22.314Z,71.93
2022-09-25T19:47:50.866Z,72.33
2022-09-25T19:50:19.314Z,72.28
2022-09-25T19:52:50.899Z,72.38
2022-09-25T19:55:19.891Z,73.01
2022-09-25T19:57:48.521Z,72.86
2022-09-25T20:00:18.869Z,72.67
2022-09-25T20:02:47.901Z,73.26
2022-09-25T20:05:17.274Z,72.76
2022-09-25T20:07:45.710Z,73.61
2022-09-25T20:10:14.203Z,73.13
2022-09-25T20:12:42.591Z,73.59
2022-09-25T20:15:11.729Z,73.21
2022-09-25T20:17:41.652Z,73.26
2022-09-25T20:20:10.157Z,72.82
2022-09-25T20:22:38.464Z,73.90
2022-09-25T20:25:07.723Z,73.30
2022-09-25T20:27:36.698Z,73.93
2022-09-25T20:30:05.907Z,75.03
2022-09-25T20:32:35.287Z,74.72
2022-09-25T20:35:05.378Z,75.52
2022-09-25T20:37:33.782Z,75.04
2022-09-25T20:40:02.551Z,74.50
2022-09-25T20:42:31.582Z,75.13
2022-09-25T20:44:59.914Z,76.53
2022-09-25T20:47:33.587Z,75.55
2022-09-25T20:50:02.364Z,75.58
2022-09-25T20:52:34.898Z,74.85
2022-09-25T20:55:03.262Z,75.39
2022-09-25T20:57:33.729Z,73.99
2022-09-25T21:00:03.491Z,73.62
2022-09-25T21:02:35.302Z,73.96
2022-09-25T21:05:03.716Z,75.57
2022-09-25T21:07:33.707Z,75.64
2022-09-25T21:10:02.160Z,75.85
2022-09-25T21:12:31.238Z,75.49
2022-09-25T21:14:59.614Z,75.33
2022-09-25T21:17:27.961Z,74.46
2022-09-25T21:19:56.353Z,74.92
2022-09-25T21:22:24.926Z,75.01
2022-09-25T21:24:55.038Z,75.26
2022-09-25T21:27:23.495Z,75.24
2022-09-25T21:29:52.235Z,75.49
2022-09-25T21:32:20.705Z,75.67
2022-09-25T21:34:49.058Z,76.01
2022-09-25T21:37:17.392Z,75.47
2022-09-25T21:39:46.400Z,75.15
2022-09-25T21:42:16.485Z,75.55
2022-09-25T21:44:46.184Z,75.46
2022-09-25T21:47:15.488Z,74.47
2022-09-25T21:49:44.166Z,74.60
2022-09-25T21:52:12.777Z,75.04
2022-09-25T21:54:41.121Z,74.30
2022-09-25T21:57:09.616Z,74.92
2022-09-25T21:59:40.545Z,74.86
2022-09-25T22:02:08.967Z,74.75
2022-09-25T22:04:37.437Z,74.76
2022-09-25T22:07:06.316Z,74.71
2022-09-25T22:09:35.159Z,75.00
2022-09-25T22:12:03.702Z,74.64
2022-09-25T22:14:32.182Z,74.95
2022-09-25T22:17:02.061Z,74.41
2022-09-25T22:19:31.636Z,74.73
2022-09-25T22:22:01.006Z,75.09
2022-09-25T22:24:29.488Z,74.37
2022-09-25T22:26:57.933Z,75.20
2022-09-25T22:29:26.695Z,74.78
2022-09-25T22:31:55.695Z,74.70
2022-09-25T22:34:27.057Z,74.73
2022-09-25T22:36:59.498Z,74.91
2022-09-25T22:39:29.803Z,75.01
2022-09-25T22:41:58.264Z,75.01
2022-09-25T22:44:27.386Z,74.50
2022-09-25T22:46:56.087Z,75.31
2022-09-25T22:49:26.026Z,75.27
2022-09-25T22:51:54.419Z,74.47
2022-09-25T22:54:22.853Z,74.96
2022-09-25T22:56:53.680Z,74.63
2022-09-25T22:59:22.109Z,74.52
2022-09-25T23:01:53.119Z,74.86
2022-09-25T23:04:23.640Z,74.28
2022-09-25T23:06:54.033Z,74.64
2022-09-25T23:09:25.069Z,74.70
2022-09-25T23:11:54.070Z,74.70
2022-09-25T23:14:25.103Z,74.86
2022-09-25T23:16:55.867Z,75.19
2022-09-25T23:19:24.740Z,75.07
2022-09-25T23:21:55.288Z,74.90
2022-09-25T23:24:25.457Z,74.38
2022-09-25T23:26:55.188Z,74.76
2022-09-25T23:29:23.963Z,74.50
2022-09-25T23:31:52.781Z,74.50
2022-09-25T23:34:21.283Z,74.52
2022-09-25T23:36:50.004Z,74.77
2022-09-25T23:39:21.917Z,74.74
2022-09-25T23:41:50.363Z,74.53
2022-09-25T23:44:18.784Z,75.31
2022-09-25T23:46:47.146Z,74.84
2022-09-25T23:49:16.468Z,75.11
2022-09-25T23:51:46.373Z,75.14
2022-09-25T23:54:15.363Z,74.77
2022-09-25T23:56:45.350Z,74.36
2022-09-25T23:59:15.082Z,73.93
